Time,TemperatureF,DewpointF,PressureIn,WindDirection,WindDirectionDegrees,WindSpeedMPH,WindSpeedGustMPH,Humidity,HourlyPrecipIn,Conditions,Clouds,dailyrainin,SoftwareType,DateUTC
2013-07-18 00:33:00,76.8,69.5,30.65,West,270,0.0,0.0,78,0.00,,,0.00,WUHU21623XXSP,2013-07-18 04:33:00,
2013-07-18 01:33:00,75.4,69.2,30.65,West,270,0.0,0.0,81,0.00,,,0.00,WUHU21623XXSP,2013-07-18 05:33:00,
2013-07-18 02:33:00,73.9,68.8,30.63,West,270,0.0,0.0,84,0.00,,,0.00,WUHU21623XXSP,2013-07-18 06:33:00,
2013-07-18 03:33:00,73.6,68.8,30.62,West,270,0.0,0.0,85,0.00,,,0.00,WUHU21623XXSP,2013-07-18 07:33:00,
2013-07-18 04:33:00,72.5,68.1,30.61,West,270,0.0,0.0,86,0.00,,,0.00,WUHU21623XXSP,2013-07-18 08:33:00,
2013-07-18 05:33:00,71.8,67.7,30.60,West,270,0.0,0.0,87,0.00,,,0.00,WUHU21623XXSP,2013-07-18 09:33:00,
2013-07-18 06:33:00,71.2,67.8,30.61,West,270,0.0,0.0,89,0.00,,,0.00,WUHU21623XXSP,2013-07-18 10:33:00,
2013-07-18 07:33:00,72.1,68.7,30.61,West,270,0.0,0.0,89,0.00,,,0.00,WUHU21623XXSP,2013-07-18 11:33:00,
2013-07-18 08:33:00,75.2,71.1,30.60,West,270,0.0,0.0,87,0.00,,,0.00,WUHU21623XXSP,2013-07-18 12:33:00,
2013-07-18 09:33:00,78.4,73.2,30.59,WSW,248,0.0,0.0,84,0.00,,,0.00,WUHU21623XXSP,2013-07-18 13:33:00,
2013-07-18 10:33:00,81.5,74.5,30.59,South,180,0.0,0.0,79,0.00,,,0.00,WUHU21623XXSP,2013-07-18 14:33:00,
2013-07-18 11:33:00,85.1,74.5,30.59,SW,225,0.0,0.0,70,0.00,,,0.00,WUHU21623XXSP,2013-07-18 15:33:00,
2013-07-18 12:33:00,88.5,75.1,30.58,NW,315,0.0,0.0,64,0.00,,,0.00,WUHU21623XXSP,2013-07-18 16:33:00,
2013-07-18 13:33:00,91.6,75.0,30.55,WNW,293,0.0,0.0,58,0.00,,,0.00,WUHU21623XXSP,2013-07-18 17:33:00,
2013-07-18 14:33:00,92.8,74.0,30.52,SW,225,0.0,0.0,54,0.00,,,0.00,WUHU21623XXSP,2013-07-18 18:33:00,
2013-07-18 15:33:00,94.5,74.4,30.50,North,0,0.0,0.0,52,0.00,,,0.00,WUHU21623XXSP,2013-07-18 19:33:00,
2013-07-18 16:33:00,94.5,73.2,30.49,NNE,23,0.0,0.0,50,0.00,,,0.00,WUHU21623XXSP,2013-07-18 20:33:00,
2013-07-18 17:33:00,94.8,73.5,30.45,North,0,0.0,0.0,50,0.00,,,0.00,WUHU21623XXSP,2013-07-18 21:33:00,
2013-07-18 18:33:00,93.7,72.5,30.43,North,0,2.9,2.9,50,0.00,,,0.00,WUHU21623XXSP,2013-07-18 22:33:00,
2013-07-18 19:33:00,90.9,72.2,30.43,WNW,293,0.0,0.0,54,0.00,,,0.00,WUHU21623XXSP,2013-07-18 23:33:00,
2013-07-18 20:33:00,87.1,70.8,30.41,NE,45,0.0,0.0,58,0.00,,,0.00,WUHU21623XXSP,2013-07-19 00:33:00,
2013-07-18 21:33:00,83.8,70.1,30.41,NW,315,0.0,0.0,63,0.00,,,0.00,WUHU21623XXSP,2013-07-19 01:33:00,
2013-07-18 22:33:00,82.0,69.3,30.42,WNW,293,0.0,0.0,65,0.00,,,0.00,WUHU21623XXSP,2013-07-19 02:33:00,
2013-07-18 23:33:00,80.4,69.9,30.41,NNW,338,0.0,0.0,70,0.00,,,0.00,WUHU21623XXSP,2013-07-19 03:33:00,